| 5/6/2026 | Independent Financial Group LLC | 28,302 | $0.33M | 0.0% | N/A | 0.000% |  |
| 5/5/2026 | Bank of New York Mellon Corp | 43,275 | $0.50M | 0.0% | +23.6% | 0.000% |  |
| 5/5/2026 | Sanctuary Advisors LLC | 159,227 | $1.83M | 0.0% | -1.2% | 0.000% |  |
| 5/5/2026 | Cornerstone Advisory LLC | 847,426 | $9.75M | 0.9% | -3.5% | 0.000% |  |
| 5/4/2026 | Chicago Partners Investment Group LLC | 27,473 | $0.32M | 0.0% | -3.2% | 0.000% |  |
| 5/1/2026 | Fifth Third Bancorp | 49,434 | $0.57M | 0.0% | +416.9% | 0.000% |  |
| 4/30/2026 | Ibex Wealth Advisors | 127,683 | $1.47M | 0.1% | -3.5% | 0.000% |  |
| 4/30/2026 | Kestra Advisory Services LLC | 186,831 | $2.15M | 0.0% | +4.4% | 0.000% |  |
| 4/28/2026 | Indiana Trust & Investment Management Co | 29,000 | $0.33M | 0.1% | -77.4% | 0.000% |  |
| 4/27/2026 | Altus Wealth Group LLC | 15,832 | $0.18M | 0.1% | +54.7% | 0.000% |  |
| 4/27/2026 | PFG Investments LLC | 37,694 | $0.43M | 0.0% | -5.1% | 0.000% |  |
| 4/27/2026 | World Investment Advisors | 22,614 | $0.26M | 0.0% | -20.1% | 0.000% |  |
| 4/27/2026 | Canal Capital Management LLC | 12,195 | $0.14M | 0.0% | N/A | 0.000% |  |
| 4/27/2026 | Private Advisor Group LLC | 41,162 | $0.47M | 0.0% | -2.3% | 0.000% |  |
| 4/25/2026 | Eagle Bluffs Wealth Management LLC | 741,692 | $8.58M | 3.3% | +7.6% | 0.000% |  |
| 4/24/2026 | Wealth Care LLC | 50,000 | $0.58M | 0.5% | N/A | 0.000% |  |
| 4/24/2026 | Key Financial Inc | 12,536 | $0.14M | 0.0% | N/A | 0.000% |  |
| 4/23/2026 | Folger Nolan Fleming Douglas Capital Management Inc. | 18,638 | $0.21M | 0.0% | N/A | 0.000% |  |
| 4/22/2026 | Patriot Financial Group Insurance Agency LLC | 10,000 | $0.12M | 0.0% | N/A | 0.000% |  |
| 4/21/2026 | Maridea Wealth Management LLC | 14,593 | $0.17M | 0.0% | +20.5% | 0.000% |  |
| 4/21/2026 | Silver Oak Securities Incorporated | 9,881 | $0.11M | 0.0% | +12.3% | 0.000% |  |
| 4/20/2026 | Breakwater Capital Group | 123,172 | $1.42M | 0.2% | +7.9% | 0.000% |  |
| 4/17/2026 | XML Financial LLC | 133,148 | $1.53M | 0.1% | -3.6% | 0.000% |  |
| 4/17/2026 | Everstar Asset Management LLC | 100,170 | $1.15M | 0.6% | N/A | 0.000% |  |
| 3/17/2026 | Rockefeller Capital Management L.P. | 184,786 | $2.22M | 0.0% | -4.7% | 0.000% |  |
| 3/13/2026 | World Investment Advisors | 28,310 | $0.34M | 0.0% | +164.7% | 0.000% |  |
| 3/9/2026 | Corient Private Wealth LLC | 39,398 | $0.47M | 0.0% | -8.2% | 0.000% |  |
| 3/5/2026 | Worthington Financial Partners LLC | 44,544 | $0.54M | 0.5% | N/A | 0.000% |  |
| 2/25/2026 | Sit Investment Associates Inc. | 245,102 | $2.95M | 0.1% | -64.2% | 0.000% |  |
| 2/23/2026 | Virtu Financial LLC | 144,507 | $1.74M | 0.1% | N/A | 0.000% |  |
| 2/19/2026 | Invesco Ltd. | 218,823 | $2.63M | 0.0% | +3.2% | 0.000% |  |
| 2/19/2026 | Corient Private Wealth LLC | 50,638 | $0.61M | 0.0% | +18.0% | 0.000% |  |
| 2/18/2026 | Widmann Financial Services Inc. | 17,224 | $0.21M | 0.1% | -5.4% | 0.000% |  |
| 2/18/2026 | Mercer Global Advisors Inc. ADV | 16,270 | $0.20M | 0.0% | +55.0% | 0.000% |  |
| 2/18/2026 | NewEdge Advisors LLC | 371,835 | $4.47M | 0.0% | +88.6% | 0.000% |  |
| 2/18/2026 | XTX Topco Ltd | 46,476 | $0.56M | 0.0% | N/A | 0.000% |  |
| 2/18/2026 | Evolve Private Wealth LLC | 29,146 | $0.35M | 0.0% | N/A | 0.000% |  |
| 2/18/2026 | Align Financial LLC | 2,933 | $35K | 0.0% | N/A | 0.000% |  |
| 2/17/2026 | Guggenheim Capital LLC | 2,572,898 | $30.93M | 0.2% | +45.9% | 0.000% |  |
| 2/17/2026 | Cetera Investment Advisers | 647,154 | $7.78M | 0.0% | +7.4% | 0.000% |  |
| 2/17/2026 | Colter Lewis Investment Partners LLC | 104,326 | $1.25M | 1.5% | N/A | 0.000% |  |
| 2/17/2026 | GeoWealth Management LLC | 36,814 | $0.44M | 0.0% | -26.9% | 0.000% |  |
| 2/17/2026 | Osaic Holdings Inc. | 328,551 | $3.95M | 0.0% | -5.1% | 0.000% |  |
| 2/17/2026 | Advisory Services Network LLC | 63,087 | $0.76M | 0.0% | -25.6% | 0.000% |  |
| 2/17/2026 | Ibex Wealth Advisors | 132,288 | $1.59M | 0.2% | -3.3% | 0.000% |  |
| 2/17/2026 | &PARTNERS | 94,581 | $1.14M | 0.0% | +183.2% | 0.000% |  |
| 2/17/2026 | Royal Bank of Canada | 899,907 | $10.82M | 0.0% | +4.6% | 0.000% |  |
| 2/17/2026 | Beacon Investment Advisors LLC | 10,309 | $0.12M | 0.0% | -23.4% | 0.000% |  |
| 2/16/2026 | Mariner LLC | 37,994 | $0.46M | 0.0% | -15.4% | 0.000% |  |
| 2/16/2026 | Eagle Bluffs Wealth Management LLC | 689,347 | $8.29M | 3.4% | +7.9% | 0.000% |  |
| 2/16/2026 | Arkos Global Advisors | 23,168 | $0.28M | 0.0% | -13.5% | 0.000% |  |
| 2/13/2026 | Kestra Advisory Services LLC | 178,889 | $2.15M | 0.0% | -5.4% | 0.000% |  |
| 2/13/2026 | Altus Wealth Group LLC | 10,232 | $0.12M | 0.0% | N/A | 0.000% |  |
| 2/13/2026 | Kennicott Capital Management LLC | 10,418 | $0.13M | 0.1% | -30.5% | 0.000% |  |
| 2/13/2026 | Stifel Financial Corp | 694,762 | $8.35M | 0.0% | +18.0% | 0.000% |  |
| 2/13/2026 | PCM Encore LLC | 13,434 | $0.16M | 0.0% | N/A | 0.000% |  |
| 2/13/2026 | Morgan Stanley | 7,179,292 | $86.30M | 0.0% | +0.7% | 0.000% |  |
| 2/13/2026 | Focused Alpha LLC | 50,666 | $0.61M | 0.2% | N/A | 0.000% |  |
| 2/13/2026 | Van ECK Associates Corp | 1,176,168 | $14.14M | 0.0% | -2.5% | 0.000% |  |
| 2/13/2026 | Wells Fargo & Company MN | 2,444,540 | $29.38M | 0.0% | -1.9% | 0.000% |  |
| 2/13/2026 | Summit Financial LLC | 89,193 | $1.07M | 0.0% | +9.0% | 0.000% |  |
| 2/13/2026 | Concorde Asset Management LLC | 62,096 | $0.75M | 0.3% | +9.1% | 0.000% |  |
| 2/12/2026 | Advisors Asset Management Inc. | 511,349 | $6.15M | 0.1% | -15.7% | 0.000% |  |
| 2/12/2026 | Advocate Investing Services LLC | 3,372 | $41K | 0.0% | N/A | 0.000% |  |
| 2/12/2026 | Jane Street Group LLC | 257,220 | $3.09M | 0.0% | +139.4% | 0.000% |  |
| 2/12/2026 | Insigneo Advisory Services LLC | 13,959 | $0.17M | 0.0% | +6.8% | 0.000% |  |
| 2/12/2026 | Commonwealth Equity Services LLC | 445,132 | $5.35M | 0.0% | +2.4% | 0.000% |  |
| 2/12/2026 | Carson Advisory Inc. | 10,115 | $0.12M | 0.1% | -13.0% | 0.000% |  |
| 2/12/2026 | Marex Group plc | 11,790 | $0.14M | 0.0% | -56.9% | 0.000% |  |
| 2/12/2026 | Great Lakes Retirement Inc. | 17,904 | $0.22M | 0.0% | N/A | 0.000% |  |
| 2/12/2026 | Steward Partners Investment Advisory LLC | 195,511 | $2.35M | 0.0% | +0.7% | 0.000% |  |
| 2/11/2026 | Janney Montgomery Scott LLC | 339,680 | $4.08M | 0.0% | +2.6% | 0.000% |  |
| 2/11/2026 | GFS Advisors LLC | 483,570 | $5.81M | 0.7% | -6.1% | 0.000% |  |
| 2/11/2026 | Capital Analysts LLC | 3,455 | $42K | 0.0% | N/A | 0.000% |  |
| 2/11/2026 | Horizon Kinetics Asset Management LLC | 161,977 | $1.95M | 0.0% | -0.5% | 0.000% |  |
| 2/11/2026 | Cerity Partners LLC | 218,671 | $2.63M | 0.0% | +10.6% | 0.000% |  |
| 2/11/2026 | LPL Financial LLC | 953,333 | $11.46M | 0.0% | +15.3% | 0.000% |  |
| 2/11/2026 | XML Financial LLC | 138,086 | $1.66M | 0.1% | -2.2% | 0.000% |  |
| 2/11/2026 | Closed End Fund Advisors Inc. | 14,125 | $0.17M | 0.1% | N/A | 0.000% |  |
| 2/11/2026 | Crescent Grove Advisors LLC | 31,735 | $0.38M | 0.0% | -21.2% | 0.000% |  |
| 2/10/2026 | Private Wealth Asset Management LLC | 18,805 | $0.23M | 0.0% | N/A | 0.000% |  |
| 2/10/2026 | Gill Capital Partners LLC | 198,572 | $2.39M | 0.7% | -63.4% | 0.000% |  |
| 2/10/2026 | Northwestern Mutual Wealth Management Co. | 78,771 | $0.95M | 0.0% | +1.6% | 0.000% |  |
| 2/10/2026 | Savant Capital LLC | 183,334 | $2.20M | 0.0% | -1.4% | 0.000% |  |
| 2/10/2026 | Moors & Cabot Inc. | 27,367 | $0.33M | 0.0% | +27.5% | 0.000% |  |
| 2/9/2026 | Cary Street Partners Financial LLC | 17,998 | $0.22M | 0.0% | +33.8% | 0.000% |  |
| 2/9/2026 | MSH Capital Advisors LLC | 66,947 | $0.81M | 0.2% | +10.0% | 0.000% |  |
| 2/9/2026 | Kuhn & Co Investment Counsel | 99,904 | $1.20M | 0.8% | +42.9% | 0.000% |  |
| 2/9/2026 | Prospera Financial Services Inc | 125,391 | $1.51M | 0.0% | +2.5% | 0.000% |  |
| 2/6/2026 | Kingdom Financial Group LLC. | 3,657 | $44K | 0.0% | N/A | 0.000% |  |
| 2/6/2026 | Global Retirement Partners LLC | 37,859 | $0.46M | 0.0% | +1,783.5% | 0.000% |  |
| 2/6/2026 | IFP Advisors Inc | 50,032 | $0.60M | 0.0% | -23.8% | 0.000% |  |
| 2/6/2026 | HighTower Advisors LLC | 464,400 | $5.58M | 0.0% | -3.0% | 0.000% |  |
| 2/5/2026 | Wakefield Asset Management LLLP | 159,821 | $1.92M | 0.5% | +0.7% | 0.000% |  |
| 2/5/2026 | Northwestern Mutual Wealth Management Co. | 155,822 | $1.87M | 0.0% | +101.1% | 0.000% |  |
| 2/5/2026 | Allworth Financial LP | 18,424 | $0.22M | 0.0% | +17.2% | 0.000% |  |
| 2/4/2026 | World Investment Advisors | 28,310 | $0.34M | 0.0% | +164.7% | 0.000% |  |
| 2/3/2026 | Koshinski Asset Management Inc. | 63,042 | $0.76M | 0.0% | +338.3% | 0.000% |  |
| 2/3/2026 | International Assets Investment Management LLC | 15,466 | $0.19M | 0.0% | N/A | 0.000% |  |
| 2/3/2026 | Indivisible Partners | 113,152 | $1.36M | 0.1% | N/A | 0.000% |  |